Time;durP1;ratioP1;P1;durP2;ratioP2;P2;SDS_P1;SDS_P2;PMS_P1;PMS_P2;Temp;Humidity;BMP_temperature;BMP_pressure;BME280_temperature;BME280_humidity;BME280_pressure;Samples;Min_cycle;Max_cycle;Signal;HPM_P1;HPM_P2
2022/09/03 00:01:33;;;;;;;0.00;0.00;;;;;;;;;;6227787;22;20070;-90
2022/09/03 00:04:03;;;;;;;0.10;0.10;;;;;;;;;;6227463;22;20073;-90
2022/09/03 00:07:02;;;;;;;0.20;0.20;;;;;;;;;;6227491;22;20068;-90
2022/09/03 00:09:30;;;;;;;0.10;0.10;;;;;;;;;;6210642;22;20065;-90
2022/09/03 00:12:15;;;;;;;0.10;0.10;;;;;;;;;;6227883;22;20015;-90
2022/09/03 00:15:00;;;;;;;0.00;0.00;;;;;;;;;;6227728;22;20022;-90
2022/09/03 00:17:39;;;;;;;0.00;0.00;;;;;;;;;;6227990;22;20015;-91
2022/09/03 00:20:10;;;;;;;0.10;0.10;;;;;;;;;;6227244;22;20011;-89
2022/09/03 00:22:38;;;;;;;0.10;0.10;;;;;;;;;;6227771;22;20015;-91
2022/09/03 00:25:09;;;;;;;0.10;0.10;;;;;;;;;;6253258;22;20445;-90
2022/09/03 00:27:37;;;;;;;0.10;0.10;;;;;;;;;;6227843;22;20023;-90
2022/09/03 00:30:05;;;;;;;0.10;0.10;;;;;;;;;;6226718;22;20012;-90
2022/09/03 00:32:47;;;;;;;0.10;0.10;;;;;;;;;;6227223;22;20011;-90
2022/09/03 00:35:42;;;;;;;0.10;0.10;;;;;;;;;;6227787;22;20023;-90
2022/09/03 00:38:08;;;;;;;0.10;0.10;;;;;;;;;;6198533;22;20076;-89
2022/09/03 00:40:53;;;;;;;0.00;0.00;;;;;;;;;;6226980;22;20015;-89
2022/09/03 00:43:38;;;;;;;0.05;0.05;;;;;;;;;;6228039;22;20019;-88
2022/09/03 00:46:23;;;;;;;0.05;0.05;;;;;;;;;;6227149;22;20026;-89
2022/09/03 00:49:04;;;;;;;0.08;0.08;;;;;;;;;;6227028;22;20016;-89
2022/09/03 00:51:36;;;;;;;0.10;0.10;;;;;;;;;;6226288;22;20016;-88
2022/09/03 00:54:09;;;;;;;0.10;0.10;;;;;;;;;;6251986;22;20016;-90
2022/09/03 00:56:54;;;;;;;0.10;0.10;;;;;;;;;;6227835;22;20019;-90
2022/09/03 00:59:23;;;;;;;0.00;0.00;;;;;;;;;;6252038;22;20020;-90
2022/09/03 01:02:08;;;;;;;0.10;0.10;;;;;;;;;;6227663;22;20012;-90
2022/09/03 01:04:34;;;;;;;0.00;0.00;;;;;;;;;;6226789;22;20019;-90
2022/09/03 01:07:00;;;;;;;0.10;0.10;;;;;;;;;;6226807;22;20019;-89
2022/09/03 01:09:30;;;;;;;0.10;0.10;;;;;;;;;;6251479;22;20345;-88
2022/09/03 01:12:04;;;;;;;0.00;0.00;;;;;;;;;;6227061;22;20348;-89
2022/09/03 01:14:40;;;;;;;0.10;0.10;;;;;;;;;;6226228;22;20544;-89
2022/09/03 01:17:05;;;;;;;0.08;0.08;;;;;;;;;;6226790;22;20041;-91
2022/09/03 01:19:44;;;;;;;0.10;0.10;;;;;;;;;;6226576;22;20063;-90
2022/09/03 01:22:18;;;;;;;0.10;0.10;;;;;;;;;;6226904;22;20016;-91
2022/09/03 01:24:57;;;;;;;0.00;0.00;;;;;;;;;;6227215;22;20012;-90
2022/09/03 01:27:42;;;;;;;0.10;0.10;;;;;;;;;;6226981;22;20051;-89
2022/09/03 01:30:09;;;;;;;0.10;0.10;;;;;;;;;;6225542;22;20109;-89
2022/09/03 01:32:50;;;;;;;0.10;0.10;;;;;;;;;;6225836;22;20016;-89
2022/09/03 01:35:35;;;;;;;0.08;0.08;;;;;;;;;;6226113;22;20094;-90
2022/09/03 01:38:16;;;;;;;0.10;0.10;;;;;;;;;;6226096;22;20019;-89
2022/09/03 01:42:12;;;;;;;0.10;0.10;;;;;;;;;;6224947;22;20027;-90
2022/09/03 01:44:05;;;;;;;0.00;0.00;;;;;;;;;;6229357;22;20392;-89
2022/09/03 01:46:36;;;;;;;0.10;0.10;;;;;;;;;;6226236;22;20030;-89
2022/09/03 01:49:11;;;;;;;0.00;0.00;;;;;;;;;;6225265;22;20019;-89
2022/09/03 01:51:37;;;;;;;;;;;;;;;;;;6226991;22;20047;-90
2022/09/03 01:54:39;;;;;;;0.20;0.20;;;;;;;;;;6225856;22;19911;-88
2022/09/03 01:57:09;;;;;;;0.05;0.05;;;;;;;;;;6251001;22;20012;-90
2022/09/03 01:59:48;;;;;;;0.10;0.10;;;;;;;;;;6250760;22;20018;-90
2022/09/03 02:02:23;;;;;;;0.10;0.10;;;;;;;;;;6225563;22;20011;-90
2022/09/03 02:04:49;;;;;;;;;;;;;;;;;;6226438;22;20047;-91
2022/09/03 02:07:15;;;;;;;0.10;0.10;;;;;;;;;;6226293;22;19911;-89
2022/09/03 02:09:41;;;;;;;0.17;0.17;;;;;;;;;;6225340;22;20030;-90
2022/09/03 02:12:14;;;;;;;0.20;0.20;;;;;;;;;;6225628;22;20019;-90
2022/09/03 02:14:40;;;;;;;0.10;0.10;;;;;;;;;;6225357;22;20322;-89
2022/09/03 02:17:06;;;;;;;0.05;0.05;;;;;;;;;;6251046;22;20019;-88
2022/09/03 02:19:33;;;;;;;0.20;0.20;;;;;;;;;;6225097;22;20016;-88
2022/09/03 02:21:59;;;;;;;0.10;0.10;;;;;;;;;;6225764;22;20047;-90
2022/09/03 02:24:25;;;;;;;0.10;0.10;;;;;;;;;;6225170;22;20019;-89
2022/09/03 02:26:52;;;;;;;0.03;0.03;;;;;;;;;;6225447;22;20022;-88
2022/09/03 02:29:19;;;;;;;0.10;0.10;;;;;;;;;;6250222;22;20095;-90
2022/09/03 02:31:45;;;;;;;0.10;0.10;;;;;;;;;;6225533;22;20047;-89
2022/09/03 02:34:11;;;;;;;0.00;0.00;;;;;;;;;;6250247;22;20022;-90
2022/09/03 02:36:39;;;;;;;0.10;0.10;;;;;;;;;;6225664;22;20054;-89
2022/09/03 02:39:05;;;;;;;0.10;0.10;;;;;;;;;;6250493;22;20023;-88
2022/09/03 02:41:32;;;;;;;0.00;0.00;;;;;;;;;;6225469;22;20065;-90
2022/09/03 02:44:16;;;;;;;0.10;0.10;;;;;;;;;;6225589;22;20019;-90
2022/09/03 02:46:48;;;;;;;0.20;0.20;;;;;;;;;;6225445;22;20020;-91
2022/09/03 02:49:14;;;;;;;0.10;0.10;;;;;;;;;;6225168;22;20016;-90
2022/09/03 02:51:41;;;;;;;0.10;0.10;;;;;;;;;;6225385;22;20018;-90
2022/09/03 02:54:08;;;;;;;0.10;0.10;;;;;;;;;;6251386;22;20016;-90
2022/09/03 02:56:34;;;;;;;0.10;0.10;;;;;;;;;;6225945;22;20334;-90
2022/09/03 02:59:01;;;;;;;0.10;0.10;;;;;;;;;;6225373;22;20018;-92
2022/09/03 03:01:27;;;;;;;0.00;0.00;;;;;;;;;;6225799;22;20062;-90
2022/09/03 03:03:53;;;;;;;0.10;0.10;;;;;;;;;;6225898;22;20102;-90
2022/09/03 03:06:20;;;;;;;0.10;0.10;;;;;;;;;;6225938;22;20341;-90
2022/09/03 03:08:46;;;;;;;0.10;0.10;;;;;;;;;;6224515;22;20012;-89
2022/09/03 03:11:17;;;;;;;0.10;0.10;;;;;;;;;;6226000;22;20074;-90
2022/09/03 03:13:46;;;;;;;0.10;0.10;;;;;;;;;;6251354;22;20345;-90
2022/09/03 03:16:12;;;;;;;0.10;0.10;;;;;;;;;;6227052;22;20020;-89
2022/09/03 03:18:38;;;;;;;0.10;0.10;;;;;;;;;;6227463;22;20045;-91
2022/09/03 03:21:05;;;;;;;0.10;0.10;;;;;;;;;;6227050;22;20098;-90
2022/09/03 03:23:32;;;;;;;0.10;0.10;;;;;;;;;;6253469;22;20027;-89
2022/09/03 03:26:02;;;;;;;0.20;0.20;;;;;;;;;;6228655;22;20020;-91
2022/09/03 03:28:28;;;;;;;0.10;0.10;;;;;;;;;;6228157;22;20015;-91
2022/09/03 03:30:54;;;;;;;0.10;0.10;;;;;;;;;;6227594;22;20062;-91
2022/09/03 03:33:21;;;;;;;0.10;0.10;;;;;;;;;;6228137;22;20012;-91
2022/09/03 03:35:47;;;;;;;0.10;0.10;;;;;;;;;;6228455;22;20340;-91
2022/09/03 03:38:13;;;;;;;0.10;0.10;;;;;;;;;;6227490;22;20020;-89
2022/09/03 03:40:39;;;;;;;0.17;0.17;;;;;;;;;;6227024;22;20073;-90
2022/09/03 03:43:05;;;;;;;0.10;0.10;;;;;;;;;;6227577;22;20038;-90
2022/09/03 03:45:31;;;;;;;0.10;0.10;;;;;;;;;;6227511;22;20420;-89
2022/09/03 03:47:58;;;;;;;0.00;0.00;;;;;;;;;;6227348;22;20326;-88
2022/09/03 03:50:24;;;;;;;0.10;0.10;;;;;;;;;;6226998;22;20018;-90
2022/09/03 03:52:50;;;;;;;0.10;0.10;;;;;;;;;;6227498;22;20020;-90
2022/09/03 03:55:16;;;;;;;0.10;0.10;;;;;;;;;;6227082;22;20089;-90
2022/09/03 03:57:42;;;;;;;0.10;0.10;;;;;;;;;;6227329;22;20015;-90
2022/09/03 04:00:08;;;;;;;0.10;0.10;;;;;;;;;;6226241;22;20543;-89
2022/09/03 04:02:34;;;;;;;0.00;0.00;;;;;;;;;;6252756;22;20015;-90
2022/09/03 04:05:00;;;;;;;0.15;0.15;;;;;;;;;;6253273;22;20027;-90
2022/09/03 04:07:26;;;;;;;0.10;0.10;;;;;;;;;;6227143;22;20380;-90
2022/09/03 04:09:52;;;;;;;0.10;0.10;;;;;;;;;;6226580;22;20030;-89
2022/09/03 04:12:18;;;;;;;0.10;0.10;;;;;;;;;;6252799;22;20396;-91
2022/09/03 04:14:44;;;;;;;0.10;0.10;;;;;;;;;;6226719;22;20012;-89
2022/09/03 04:17:10;;;;;;;0.00;0.00;;;;;;;;;;6226645;22;20015;-90
2022/09/03 04:19:37;;;;;;;0.10;0.10;;;;;;;;;;6250954;22;20064;-89
2022/09/03 04:22:03;;;;;;;0.13;0.13;;;;;;;;;;6226101;22;20016;-89
2022/09/03 04:24:29;;;;;;;0.10;0.10;;;;;;;;;;6251880;22;20034;-89
2022/09/03 04:26:55;;;;;;;0.10;0.10;;;;;;;;;;6225941;22;20020;-88
2022/09/03 04:29:21;;;;;;;0.10;0.10;;;;;;;;;;6226178;22;20395;-91
2022/09/03 04:34:32;;;;;;;0.10;0.10;;;;;;;;;;6252447;22;20071;-89
2022/09/03 04:36:58;;;;;;;0.10;0.10;;;;;;;;;;6226770;22;20051;-89
2022/09/03 04:39:24;;;;;;;0.10;0.10;;;;;;;;;;6225910;22;20020;-89
2022/09/03 04:41:50;;;;;;;0.10;0.10;;;;;;;;;;6227393;22;20436;-89
2022/09/03 04:44:16;;;;;;;0.20;0.20;;;;;;;;;;6251886;22;20399;-89
2022/09/03 04:46:42;;;;;;;0.13;0.13;;;;;;;;;;6226939;22;20052;-89
2022/09/03 04:49:09;;;;;;;0.20;0.20;;;;;;;;;;6226121;22;20020;-89
2022/09/03 04:51:37;;;;;;;0.10;0.10;;;;;;;;;;6226068;22;20016;-88
2022/09/03 04:54:03;;;;;;;0.10;0.10;;;;;;;;;;6226254;22;20432;-89
2022/09/03 04:56:34;;;;;;;0.10;0.10;;;;;;;;;;6226002;22;20019;-88
2022/09/03 04:59:01;;;;;;;0.10;0.10;;;;;;;;;;6225894;22;20054;-89
2022/09/03 05:01:28;;;;;;;0.10;0.10;;;;;;;;;;6225922;22;20026;-90
2022/09/03 05:03:57;;;;;;;0.10;0.10;;;;;;;;;;6225997;22;20345;-89
2022/09/03 05:06:24;;;;;;;0.20;0.20;;;;;;;;;;6225852;22;20015;-89
2022/09/03 05:08:51;;;;;;;0.13;0.13;;;;;;;;;;6225677;22;20023;-89
2022/09/03 05:11:17;;;;;;;0.20;0.20;;;;;;;;;;6225603;22;20459;-90
2022/09/03 05:13:44;;;;;;;0.20;0.20;;;;;;;;;;6225541;22;20012;-89
2022/09/03 05:16:12;;;;;;;0.10;0.10;;;;;;;;;;6225547;22;20020;-90
2022/09/03 05:18:38;;;;;;;0.10;0.10;;;;;;;;;;6225351;22;20020;-89
2022/09/03 05:21:06;;;;;;;0.20;0.20;;;;;;;;;;6224869;22;20021;-89
2022/09/03 05:23:40;;;;;;;0.10;0.10;;;;;;;;;;6225339;22;20376;-89
2022/09/03 05:26:08;;;;;;;0.10;0.10;;;;;;;;;;6225580;22;20058;-89
2022/09/03 05:28:35;;;;;;;0.20;0.20;;;;;;;;;;6225565;22;20018;-90
2022/09/03 05:31:11;;;;;;;0.03;0.03;;;;;;;;;;6224921;22;20019;-89
2022/09/03 05:33:38;;;;;;;0.10;0.10;;;;;;;;;;6225083;22;20015;-89
2022/09/03 05:36:05;;;;;;;0.10;0.10;;;;;;;;;;6250611;22;20326;-89
2022/09/03 05:38:31;;;;;;;0.20;0.20;;;;;;;;;;6225187;22;20150;-89
2022/09/03 05:41:05;;;;;;;0.10;0.10;;;;;;;;;;6249969;22;20016;-90
2022/09/03 05:43:31;;;;;;;0.10;0.10;;;;;;;;;;6225421;22;20019;-90
2022/09/03 05:46:00;;;;;;;0.10;0.10;;;;;;;;;;6225030;22;20070;-89
2022/09/03 05:48:27;;;;;;;0.20;0.20;;;;;;;;;;6225540;22;20094;-90
2022/09/03 05:51:04;;;;;;;0.20;0.20;;;;;;;;;;6224679;22;20090;-89
2022/09/03 05:53:30;;;;;;;0.10;0.10;;;;;;;;;;6225067;22;20533;-89
2022/09/03 05:56:01;;;;;;;0.20;0.20;;;;;;;;;;6225035;22;20073;-89
2022/09/03 05:58:31;;;;;;;0.10;0.10;;;;;;;;;;6225204;22;20019;-88
2022/09/03 06:00:57;;;;;;;0.20;0.20;;;;;;;;;;6224219;22;20134;-89
2022/09/03 06:03:23;;;;;;;0.17;0.17;;;;;;;;;;6222477;22;20020;-89
2022/09/03 06:05:53;;;;;;;0.10;0.10;;;;;;;;;;6249323;22;20026;-89
2022/09/03 06:08:19;;;;;;;0.10;0.10;;;;;;;;;;6224298;22;20455;-89
2022/09/03 06:10:46;;;;;;;0.10;0.10;;;;;;;;;;6223812;22;20504;-90
2022/09/03 06:13:12;;;;;;;0.15;0.15;;;;;;;;;;6249437;22;20039;-89
2022/09/03 06:15:38;;;;;;;0.10;0.10;;;;;;;;;;6224038;22;20026;-88
2022/09/03 06:18:04;;;;;;;0.10;0.10;;;;;;;;;;6224351;22;20019;-89
2022/09/03 06:20:31;;;;;;;0.10;0.10;;;;;;;;;;6223657;22;20023;-89
2022/09/03 06:22:57;;;;;;;0.17;0.17;;;;;;;;;;6224290;22;20156;-89
2022/09/03 06:25:23;;;;;;;0.10;0.10;;;;;;;;;;6223884;22;20023;-88
2022/09/03 06:27:50;;;;;;;0.20;0.20;;;;;;;;;;6223951;22;20008;-89
2022/09/03 06:30:16;;;;;;;0.00;0.00;;;;;;;;;;6248667;22;20015;-89
2022/09/03 06:32:46;;;;;;;0.20;0.20;;;;;;;;;;6223992;22;20012;-89
2022/09/03 06:35:12;;;;;;;0.20;0.20;;;;;;;;;;6223891;22;20016;-88
2022/09/03 06:37:42;;;;;;;0.00;0.00;;;;;;;;;;6224068;22;20015;-89
2022/09/03 06:40:12;;;;;;;0.10;0.10;;;;;;;;;;6223664;22;20445;-89
2022/09/03 06:42:41;;;;;;;0.10;0.10;;;;;;;;;;6224440;22;20468;-90
2022/09/03 06:45:10;;;;;;;0.10;0.10;;;;;;;;;;6224244;22;20069;-89
2022/09/03 06:47:36;;;;;;;0.10;0.10;;;;;;;;;;6224165;22;20095;-88
2022/09/03 06:50:02;;;;;;;0.10;0.10;;;;;;;;;;6223177;22;20011;-91
2022/09/03 06:52:28;;;;;;;0.10;0.10;;;;;;;;;;6249229;22;20015;-89
2022/09/03 06:54:55;;;;;;;0.10;0.10;;;;;;;;;;6221872;22;20015;-88
2022/09/03 06:57:21;;;;;;;0.20;0.20;;;;;;;;;;6223322;22;20020;-88
2022/09/03 06:59:53;;;;;;;0.10;0.10;;;;;;;;;;6222875;22;20341;-94
2022/09/03 07:02:21;;;;;;;0.10;0.10;;;;;;;;;;6223713;22;20065;-90
2022/09/03 07:04:48;;;;;;;0.00;0.00;;;;;;;;;;6223468;22;20011;-90
2022/09/03 07:07:15;;;;;;;0.08;0.08;;;;;;;;;;6223842;22;20016;-91
2022/09/03 07:09:41;;;;;;;0.10;0.10;;;;;;;;;;6248108;22;20479;-88
2022/09/03 07:12:09;;;;;;;0.10;0.10;;;;;;;;;;6249083;22;20016;-91
2022/09/03 07:14:36;;;;;;;0.10;0.10;;;;;;;;;;6223663;22;20322;-90
2022/09/03 07:17:01;;;;;;;0.10;0.10;;;;;;;;;;6248848;22;20030;-90
2022/09/03 07:19:29;;;;;;;0.08;0.08;;;;;;;;;;6223892;22;20073;-90
2022/09/03 07:21:54;;;;;;;0.10;0.10;;;;;;;;;;6248855;22;20024;-91
2022/09/03 07:24:21;;;;;;;0.10;0.10;;;;;;;;;;6223616;22;20216;-87
2022/09/03 07:26:47;;;;;;;0.20;0.20;;;;;;;;;;6223629;22;20073;-89
2022/09/03 07:29:15;;;;;;;0.10;0.10;;;;;;;;;;6223371;22;20015;-90
2022/09/03 07:31:41;;;;;;;0.05;0.05;;;;;;;;;;6223233;22;20026;-88
2022/09/03 07:34:09;;;;;;;0.10;0.10;;;;;;;;;;6223445;22;20015;-90
2022/09/03 07:36:37;;;;;;;0.13;0.13;;;;;;;;;;6249261;22;20077;-92
2022/09/03 07:39:04;;;;;;;0.10;0.10;;;;;;;;;;6248599;22;20110;-91
2022/09/03 07:41:32;;;;;;;0.00;0.00;;;;;;;;;;6223659;22;20074;-92
2022/09/03 07:43:59;;;;;;;0.00;0.00;;;;;;;;;;6223656;22;20016;-92
2022/09/03 07:46:26;;;;;;;0.00;0.00;;;;;;;;;;6223579;22;20023;-91
2022/09/03 07:48:56;;;;;;;0.20;0.20;;;;;;;;;;6223048;22;20097;-91
2022/09/03 07:51:27;;;;;;;0.10;0.10;;;;;;;;;;6223779;22;20457;-87
2022/09/03 07:53:57;;;;;;;0.10;0.10;;;;;;;;;;6223926;22;20018;-90
2022/09/03 07:56:24;;;;;;;0.00;0.00;;;;;;;;;;6223516;22;20051;-89
2022/09/03 07:58:50;;;;;;;0.03;0.03;;;;;;;;;;6222021;22;20463;-89
2022/09/03 08:01:20;;;;;;;0.10;0.10;;;;;;;;;;6223988;22;20019;-89
2022/09/03 08:03:47;;;;;;;0.03;0.03;;;;;;;;;;6225310;22;20801;-90
2022/09/03 08:06:14;;;;;;;0.10;0.10;;;;;;;;;;6250459;22;20349;-90
2022/09/03 08:08:40;;;;;;;0.10;0.10;;;;;;;;;;6224801;22;20018;-89
2022/09/03 08:11:13;;;;;;;0.10;0.10;;;;;;;;;;6224760;22;20012;-89
2022/09/03 08:13:41;;;;;;;0.10;0.10;;;;;;;;;;6225336;22;20468;-89
2022/09/03 08:16:08;;;;;;;0.05;0.05;;;;;;;;;;6224766;22;20395;-89
2022/09/03 08:18:36;;;;;;;0.10;0.10;;;;;;;;;;6251026;22;20370;-90
2022/09/03 08:21:06;;;;;;;0.00;0.00;;;;;;;;;;6224741;22;20019;-89
2022/09/03 08:23:33;;;;;;;0.10;0.10;;;;;;;;;;6224596;22;20926;-88
2022/09/03 08:26:00;;;;;;;0.10;0.10;;;;;;;;;;6224172;22;20020;-87
2022/09/03 08:28:29;;;;;;;0.10;0.10;;;;;;;;;;6247054;22;20094;-87
2022/09/03 08:30:57;;;;;;;0.00;0.00;;;;;;;;;;6248844;22;20012;-89
2022/09/03 08:33:35;;;;;;;0.10;0.10;;;;;;;;;;6224373;22;20015;-91
2022/09/03 08:36:03;;;;;;;0.03;0.03;;;;;;;;;;6225305;22;20023;-89
2022/09/03 08:38:31;;;;;;;0.10;0.10;;;;;;;;;;6249899;22;20093;-93
2022/09/03 08:41:04;;;;;;;0.03;0.03;;;;;;;;;;6223979;22;20353;-89
2022/09/03 08:43:31;;;;;;;0.10;0.10;;;;;;;;;;6224564;22;20023;-90
2022/09/03 08:45:58;;;;;;;0.10;0.10;;;;;;;;;;6224255;22;20153;-89
2022/09/03 08:48:25;;;;;;;0.00;0.00;;;;;;;;;;6224288;22;20016;-89
2022/09/03 08:50:54;;;;;;;0.05;0.05;;;;;;;;;;6224430;22;20043;-91
2022/09/03 08:53:25;;;;;;;0.00;0.00;;;;;;;;;;6224550;22;20026;-89
2022/09/03 08:55:53;;;;;;;0.10;0.10;;;;;;;;;;6224268;22;20019;-89
2022/09/03 08:58:20;;;;;;;0.10;0.10;;;;;;;;;;6224787;22;20027;-89
2022/09/03 09:00:49;;;;;;;0.00;0.00;;;;;;;;;;6224256;22;20019;-88
2022/09/03 09:03:27;;;;;;;0.20;0.20;;;;;;;;;;6224722;22;20016;-87
2022/09/03 09:06:14;;;;;;;0.03;0.03;;;;;;;;;;6224075;22;20016;-90
2022/09/03 09:08:55;;;;;;;0.00;0.00;;;;;;;;;;6224507;22;20015;-90
2022/09/03 09:11:27;;;;;;;0.00;0.00;;;;;;;;;;6224558;22;20023;-89
2022/09/03 09:13:58;;;;;;;0.00;0.00;;;;;;;;;;6224279;22;20121;-89
2022/09/03 09:16:28;;;;;;;0.10;0.10;;;;;;;;;;6249414;22;20020;-90
2022/09/03 09:19:13;;;;;;;0.00;0.00;;;;;;;;;;6225640;22;20065;-91
2022/09/03 09:21:44;;;;;;;;;;;;;;;;;;6225292;22;20020;-94
2022/09/03 09:24:31;;;;;;;0.45;0.45;;;;;;;;;;6225003;22;19911;-96
2022/09/03 09:26:58;;;;;;;0.10;0.10;;;;;;;;;;6218924;22;20024;-92
2022/09/03 09:29:27;;;;;;;0.00;0.00;;;;;;;;;;6223787;22;20019;-90
2022/09/03 09:31:53;;;;;;;0.10;0.10;;;;;;;;;;6224629;22;20027;-92
2022/09/03 09:34:19;;;;;;;0.00;0.00;;;;;;;;;;6224488;22;20015;-91
2022/09/03 09:36:50;;;;;;;0.00;0.00;;;;;;;;;;6224907;22;20083;-88
2022/09/03 09:39:17;;;;;;;0.10;0.10;;;;;;;;;;6249074;22;20090;-89
2022/09/03 09:41:44;;;;;;;0.00;0.00;;;;;;;;;;6224727;22;20012;-91
2022/09/03 09:47:37;;;;;;;0.10;0.10;;;;;;;;;;6287552;22;20045;-90
2022/09/03 09:50:46;;;;;;;0.10;0.10;;;;;;;;;;6223683;22;20024;-90
2022/09/03 09:53:20;;;;;;;0.10;0.10;;;;;;;;;;6223595;22;20027;-88
2022/09/03 09:56:05;;;;;;;0.00;0.00;;;;;;;;;;6223299;22;20043;-92
2022/09/03 09:58:34;;;;;;;;;;;;;;;;;;6225479;22;20015;-93
2022/09/03 10:01:33;;;;;;;0.00;0.00;;;;;;;;;;6222891;22;19915;-93
2022/09/03 10:04:00;;;;;;;0.00;0.00;;;;;;;;;;6224185;22;20089;-91
2022/09/03 10:09:14;;;;;;;0.10;0.10;;;;;;;;;;6248954;22;20102;-92
2022/09/03 10:11:42;;;;;;;0.00;0.00;;;;;;;;;;6224533;22;20023;-93
2022/09/03 10:14:11;;;;;;;0.10;0.10;;;;;;;;;;6224576;22;20095;-91
2022/09/03 10:16:39;;;;;;;0.00;0.00;;;;;;;;;;6222982;22;20065;-92
2022/09/03 10:19:15;;;;;;;0.00;0.00;;;;;;;;;;6223845;22;20024;-91
2022/09/03 10:21:41;;;;;;;0.08;0.08;;;;;;;;;;6224553;22;20472;-91
2022/09/03 10:24:28;;;;;;;0.00;0.00;;;;;;;;;;6249159;22;20079;-92
2022/09/03 10:26:54;;;;;;;0.10;0.10;;;;;;;;;;6223789;22;20047;-92
2022/09/03 10:29:22;;;;;;;0.10;0.10;;;;;;;;;;6222387;22;20019;-90
2022/09/03 10:32:08;;;;;;;0.00;0.00;;;;;;;;;;6223274;22;20492;-89
2022/09/03 10:34:56;;;;;;;0.00;0.00;;;;;;;;;;6223335;22;20091;-92
2022/09/03 10:37:25;;;;;;;0.00;0.00;;;;;;;;;;6223477;22;20019;-92
2022/09/03 10:40:00;;;;;;;0.00;0.00;;;;;;;;;;6223195;22;20019;-91
2022/09/03 10:42:44;;;;;;;0.10;0.10;;;;;;;;;;6222962;22;20148;-91
2022/09/03 10:45:17;;;;;;;0.00;0.00;;;;;;;;;;6223640;22;20016;-93
2022/09/03 10:50:36;;;;;;;0.10;0.10;;;;;;;;;;6248418;22;20031;-93
2022/09/03 10:53:06;;;;;;;0.00;0.00;;;;;;;;;;6224230;22;20007;-91
2022/09/03 10:55:54;;;;;;;0.10;0.10;;;;;;;;;;6224340;22;20022;-92
2022/09/03 10:58:20;;;;;;;0.00;0.00;;;;;;;;;;6223757;22;20019;-91
2022/09/03 11:00:52;;;;;;;0.00;0.00;;;;;;;;;;6223345;22;20020;-92
2022/09/03 11:03:24;;;;;;;0.00;0.00;;;;;;;;;;6224554;22;20027;-93
2022/09/03 11:06:10;;;;;;;0.00;0.00;;;;;;;;;;6223887;22;20019;-89
2022/09/03 11:08:39;;;;;;;0.10;0.10;;;;;;;;;;6249560;22;20016;-91
2022/09/03 11:11:18;;;;;;;0.00;0.00;;;;;;;;;;6221463;22;20448;-90
2022/09/03 11:13:53;;;;;;;0.00;0.00;;;;;;;;;;6224246;22;20072;-93
2022/09/03 11:16:49;;;;;;;0.10;0.10;;;;;;;;;;6223811;22;20019;-92
2022/09/03 11:22:25;;;;;;;0.00;0.00;;;;;;;;;;6251169;22;20062;-92
2022/09/03 11:39:00;;;;;;;0.00;0.00;;;;;;;;;;6224517;23;20063;-92
2022/09/03 11:42:25;;;;;;;0.10;0.10;;;;;;;;;;6188244;23;20020;-93
2022/09/03 11:52:09;;;;;;;0.10;0.10;;;;;;;;;;6042256;23;20030;-89
2022/09/03 11:55:06;;;;;;;0.10;0.10;;;;;;;;;;5990463;23;20020;-92
2022/09/03 11:57:42;;;;;;;0.00;0.00;;;;;;;;;;6049104;23;20026;-92
2022/09/03 12:00:11;;;;;;;0.10;0.10;;;;;;;;;;6151338;22;20011;-91
2022/09/03 12:02:59;;;;;;;0.20;0.20;;;;;;;;;;6225746;22;20012;-93
2022/09/03 12:19:37;;;;;;;;;;;;;;;;;;;;;
2022/09/03 12:22:24;;;;;;;0.00;0.00;;;;;;;;;;6270743;22;20018;-90
2022/09/03 12:24:51;;;;;;;0.00;0.00;;;;;;;;;;6225146;22;20035;-91
2022/09/03 12:27:23;;;;;;;0.00;0.00;;;;;;;;;;6225388;22;20030;-93
2022/09/03 12:30:05;;;;;;;0.00;0.00;;;;;;;;;;6224647;22;20388;-92
2022/09/03 12:32:35;;;;;;;0.03;0.03;;;;;;;;;;6225412;22;20050;-92
2022/09/03 12:35:22;;;;;;;0.10;0.10;;;;;;;;;;6225387;22;20019;-92
2022/09/03 12:37:51;;;;;;;0.00;0.00;;;;;;;;;;6225578;22;20065;-92
2022/09/03 12:40:28;;;;;;;0.00;0.00;;;;;;;;;;6224474;22;20027;-93
2022/09/03 12:42:54;;;;;;;0.00;0.00;;;;;;;;;;6225215;22;20018;-92
2022/09/03 12:45:22;;;;;;;0.00;0.00;;;;;;;;;;6224485;22;20051;-92
2022/09/03 12:47:50;;;;;;;0.00;0.00;;;;;;;;;;6224633;22;20011;-93
2022/09/03 12:50:18;;;;;;;0.00;0.00;;;;;;;;;;6224417;22;20016;-94
2022/09/03 12:52:49;;;;;;;0.00;0.00;;;;;;;;;;6224950;22;20022;-90
2022/09/03 12:55:43;;;;;;;0.03;0.03;;;;;;;;;;6224717;22;20444;-92
2022/09/03 12:58:13;;;;;;;0.10;0.10;;;;;;;;;;6225779;22;20016;-93
2022/09/03 13:00:45;;;;;;;0.00;0.00;;;;;;;;;;6224302;22;20019;-95
2022/09/03 13:03:17;;;;;;;0.00;0.00;;;;;;;;;;6224864;22;20024;-92
2022/09/03 13:06:00;;;;;;;0.10;0.10;;;;;;;;;;6224331;22;20143;-92
2022/09/03 13:08:31;;;;;;;0.25;0.25;;;;;;;;;;6224793;22;20034;-94
2022/09/03 13:11:03;;;;;;;0.00;0.00;;;;;;;;;;6224348;22;20066;-93
2022/09/03 13:13:31;;;;;;;0.00;0.00;;;;;;;;;;6225278;22;20016;-90
2022/09/03 13:16:09;;;;;;;0.00;0.00;;;;;;;;;;6224551;22;20472;-95
2022/09/03 13:18:59;;;;;;;0.00;0.00;;;;;;;;;;6225071;22;20019;-94
2022/09/03 13:21:31;;;;;;;0.10;0.10;;;;;;;;;;6225341;22;20016;-93
2022/09/03 13:24:04;;;;;;;0.08;0.08;;;;;;;;;;6225537;22;20019;-93
2022/09/03 13:26:33;;;;;;;0.00;0.00;;;;;;;;;;6224525;22;20016;-93
2022/09/03 13:29:02;;;;;;;0.03;0.03;;;;;;;;;;6224623;22;20073;-92
2022/09/03 13:31:37;;;;;;;0.00;0.00;;;;;;;;;;6224349;22;20022;-92
2022/09/03 13:34:22;;;;;;;0.10;0.10;;;;;;;;;;6223683;22;20012;-92
2022/09/03 13:36:58;;;;;;;0.10;0.10;;;;;;;;;;6225084;22;20336;-93
2022/09/03 13:39:27;;;;;;;0.08;0.08;;;;;;;;;;6248841;22;20054;-92
2022/09/03 13:42:24;;;;;;;0.08;0.08;;;;;;;;;;6223944;22;20483;-93
2022/09/03 13:45:08;;;;;;;0.00;0.00;;;;;;;;;;6218467;22;20458;-92
2022/09/03 13:50:20;;;;;;;0.08;0.08;;;;;;;;;;6223661;22;20027;-92
2022/09/03 13:50:41;;;;;;;0.00;0.00;;;;;;;;;;6249477;22;20019;-92
2022/09/03 13:53:16;;;;;;;0.00;0.00;;;;;;;;;;6225178;22;20018;-93
2022/09/03 13:55:53;;;;;;;0.00;0.00;;;;;;;;;;6224425;22;20027;-91
2022/09/03 13:58:25;;;;;;;0.00;0.00;;;;;;;;;;6225143;22;20081;-92
2022/09/03 14:00:55;;;;;;;0.10;0.10;;;;;;;;;;6224009;22;20031;-92
2022/09/03 14:03:25;;;;;;;0.00;0.00;;;;;;;;;;6224644;22;20020;-91
2022/09/03 14:06:10;;;;;;;0.10;0.10;;;;;;;;;;6224395;22;20019;-92
2022/09/03 14:08:37;;;;;;;;;;;;;;;;;;6225354;22;20433;-93
2022/09/03 14:11:29;;;;;;;0.08;0.08;;;;;;;;;;6224390;22;19911;-93
2022/09/03 14:14:11;;;;;;;0.08;0.08;;;;;;;;;;6223071;22;20452;-93
2022/09/03 14:16:41;;;;;;;0.10;0.10;;;;;;;;;;6224677;22;20078;-92
2022/09/03 14:19:15;;;;;;;0.10;0.10;;;;;;;;;;6224232;22;20022;-92
2022/09/03 14:21:47;;;;;;;0.03;0.03;;;;;;;;;;6225143;22;20020;-92
2022/09/03 14:24:20;;;;;;;0.00;0.00;;;;;;;;;;6224275;22;20016;-93
2022/09/03 14:26:54;;;;;;;0.00;0.00;;;;;;;;;;6224486;22;20042;-91
2022/09/03 14:29:31;;;;;;;0.00;0.00;;;;;;;;;;6224676;22;20012;-92
2022/09/03 14:32:08;;;;;;;0.00;0.00;;;;;;;;;;6224470;22;20022;-92
2022/09/03 14:34:43;;;;;;;0.10;0.10;;;;;;;;;;6225231;22;20460;-93
2022/09/03 14:37:25;;;;;;;0.00;0.00;;;;;;;;;;6224940;22;20052;-94
2022/09/03 14:39:55;;;;;;;0.00;0.00;;;;;;;;;;6224715;22;20015;-93
2022/09/03 14:42:30;;;;;;;0.03;0.03;;;;;;;;;;6224523;22;20081;-93
2022/09/03 14:44:56;;;;;;;0.08;0.08;;;;;;;;;;6225413;22;20016;-93
2022/09/03 14:47:48;;;;;;;0.03;0.03;;;;;;;;;;6226255;22;20115;-92
2022/09/03 14:50:20;;;;;;;0.03;0.03;;;;;;;;;;6226591;22;20015;-93
2022/09/03 14:52:49;;;;;;;0.10;0.10;;;;;;;;;;6224888;22;20016;-93
2022/09/03 14:55:21;;;;;;;0.00;0.00;;;;;;;;;;6224875;22;20015;-92
2022/09/03 14:58:14;;;;;;;0.00;0.00;;;;;;;;;;6224185;22;20016;-93
2022/09/03 15:00:51;;;;;;;0.00;0.00;;;;;;;;;;6223118;22;20095;-93
2022/09/03 15:03:28;;;;;;;0.10;0.10;;;;;;;;;;6224298;22;20020;-91
2022/09/03 15:06:02;;;;;;;0.00;0.00;;;;;;;;;;6249677;22;20330;-92
2022/09/03 15:08:44;;;;;;;0.00;0.00;;;;;;;;;;6225276;22;20014;-93
2022/09/03 15:11:14;;;;;;;0.00;0.00;;;;;;;;;;6224593;22;20062;-94
2022/09/03 15:13:59;;;;;;;0.10;0.10;;;;;;;;;;6226102;22;20441;-92
2022/09/03 15:16:40;;;;;;;0.00;0.00;;;;;;;;;;6226357;22;20385;-93
2022/09/03 15:19:15;;;;;;;0.00;0.00;;;;;;;;;;6226251;22;20027;-93
2022/09/03 15:21:47;;;;;;;0.08;0.08;;;;;;;;;;6226274;22;20015;-92
2022/09/03 15:24:19;;;;;;;0.00;0.00;;;;;;;;;;6226064;22;20042;-93
2022/09/03 15:26:51;;;;;;;0.00;0.00;;;;;;;;;;6226914;22;20015;-92
2022/09/03 15:29:33;;;;;;;0.00;0.00;;;;;;;;;;6224871;22;20016;-93
2022/09/03 15:32:21;;;;;;;0.00;0.00;;;;;;;;;;6225042;22;20015;-92
2022/09/03 15:34:59;;;;;;;0.00;0.00;;;;;;;;;;6225771;22;20012;-93
2022/09/03 15:37:35;;;;;;;0.10;0.10;;;;;;;;;;6226037;22;20034;-93
2022/09/03 15:40:08;;;;;;;0.00;0.00;;;;;;;;;;6224788;22;20015;-90
2022/09/03 15:42:35;;;;;;;0.00;0.00;;;;;;;;;;6225893;22;20459;-94
2022/09/03 15:45:15;;;;;;;0.00;0.00;;;;;;;;;;6225524;22;20029;-93
2022/09/03 15:47:53;;;;;;;0.10;0.10;;;;;;;;;;6225618;22;20015;-93
2022/09/03 15:50:31;;;;;;;0.20;0.20;;;;;;;;;;6225014;22;20015;-92
2022/09/03 15:53:17;;;;;;;0.00;0.00;;;;;;;;;;6225688;22;20020;-94
2022/09/03 15:55:45;;;;;;;0.00;0.00;;;;;;;;;;6225669;22;20352;-93
2022/09/03 15:58:20;;;;;;;0.10;0.10;;;;;;;;;;6225182;22;20026;-93
2022/09/03 16:01:23;;;;;;;0.00;0.00;;;;;;;;;;6224613;22;20027;-93
2022/09/03 16:03:54;;;;;;;0.00;0.00;;;;;;;;;;6189684;23;20016;-93
2022/09/03 16:06:42;;;;;;;0.00;0.00;;;;;;;;;;6216588;22;20020;-94